sensor_id;sensor_type;location;lat;lon;timestamp;P1;durP1;ratioP1;P2;durP2;ratioP2
21474;SDS011;10899;53.576;9.960;2022-10-30T00:02:20;5.00;;;2.45;;
21474;SDS011;10899;53.576;9.960;2022-10-30T00:04:47;5.15;;;2.75;;
21474;SDS011;10899;53.576;9.960;2022-10-30T00:07:13;4.43;;;2.30;;
21474;SDS011;10899;53.576;9.960;2022-10-30T00:09:40;4.72;;;2.35;;
21474;SDS011;10899;53.576;9.960;2022-10-30T00:12:06;5.30;;;2.60;;
21474;SDS011;10899;53.576;9.960;2022-10-30T00:14:33;5.45;;;2.53;;
21474;SDS011;10899;53.576;9.960;2022-10-30T00:16:59;6.97;;;2.70;;
21474;SDS011;10899;53.576;9.960;2022-10-30T00:19:26;7.00;;;2.55;;
21474;SDS011;10899;53.576;9.960;2022-10-30T00:21:52;4.50;;;2.28;;
21474;SDS011;10899;53.576;9.960;2022-10-30T00:24:22;3.50;;;2.45;;
21474;SDS011;10899;53.576;9.960;2022-10-30T00:26:48;4.40;;;2.20;;
21474;SDS011;10899;53.576;9.960;2022-10-30T00:29:15;3.95;;;2.58;;
21474;SDS011;10899;53.576;9.960;2022-10-30T00:31:41;4.85;;;2.30;;
21474;SDS011;10899;53.576;9.960;2022-10-30T00:34:08;3.70;;;2.70;;
21474;SDS011;10899;53.576;9.960;2022-10-30T00:36:34;6.13;;;2.80;;
21474;SDS011;10899;53.576;9.960;2022-10-30T00:39:01;4.95;;;2.70;;
21474;SDS011;10899;53.576;9.960;2022-10-30T00:41:28;5.13;;;2.47;;
21474;SDS011;10899;53.576;9.960;2022-10-30T00:43:54;3.85;;;2.38;;
21474;SDS011;10899;53.576;9.960;2022-10-30T00:46:32;6.22;;;2.65;;
21474;SDS011;10899;53.576;9.960;2022-10-30T00:49:11;6.75;;;2.45;;
21474;SDS011;10899;53.576;9.960;2022-10-30T00:51:40;4.90;;;2.10;;
21474;SDS011;10899;53.576;9.960;2022-10-30T00:54:07;5.13;;;2.47;;
21474;SDS011;10899;53.576;9.960;2022-10-30T00:56:34;7.18;;;3.05;;
21474;SDS011;10899;53.576;9.960;2022-10-30T00:59:06;6.65;;;2.42;;
21474;SDS011;10899;53.576;9.960;2022-10-30T01:01:34;4.13;;;2.50;;
21474;SDS011;10899;53.576;9.960;2022-10-30T01:04:01;5.20;;;2.22;;
21474;SDS011;10899;53.576;9.960;2022-10-30T01:06:28;3.78;;;2.10;;
21474;SDS011;10899;53.576;9.960;2022-10-30T01:08:57;5.20;;;2.53;;
21474;SDS011;10899;53.576;9.960;2022-10-30T01:11:24;7.20;;;2.67;;
21474;SDS011;10899;53.576;9.960;2022-10-30T01:13:50;3.90;;;2.20;;
21474;SDS011;10899;53.576;9.960;2022-10-30T01:16:35;4.80;;;2.25;;
21474;SDS011;10899;53.576;9.960;2022-10-30T01:24:25;4.30;;;2.53;;
21474;SDS011;10899;53.576;9.960;2022-10-30T01:29:33;5.15;;;2.60;;
21474;SDS011;10899;53.576;9.960;2022-10-30T01:32:05;5.80;;;2.45;;
21474;SDS011;10899;53.576;9.960;2022-10-30T01:37:12;6.35;;;2.55;;
21474;SDS011;10899;53.576;9.960;2022-10-30T01:39:40;4.13;;;2.40;;
21474;SDS011;10899;53.576;9.960;2022-10-30T01:42:07;7.75;;;2.40;;
21474;SDS011;10899;53.576;9.960;2022-10-30T01:44:34;4.82;;;2.50;;
21474;SDS011;10899;53.576;9.960;2022-10-30T01:47:04;6.60;;;2.20;;
21474;SDS011;10899;53.576;9.960;2022-10-30T01:57:11;5.70;;;2.22;;
21474;SDS011;10899;53.576;9.960;2022-10-30T01:59:46;4.75;;;2.25;;
21474;SDS011;10899;53.576;9.960;2022-10-30T02:02:13;6.22;;;3.75;;
21474;SDS011;10899;53.576;9.960;2022-10-30T02:04:39;61.72;;;30.52;;
21474;SDS011;10899;53.576;9.960;2022-10-30T02:07:06;52.80;;;27.58;;
21474;SDS011;10899;53.576;9.960;2022-10-30T02:09:34;73.95;;;37.78;;
21474;SDS011;10899;53.576;9.960;2022-10-30T02:12:00;27.45;;;14.48;;
21474;SDS011;10899;53.576;9.960;2022-10-30T02:14:32;24.83;;;14.85;;
21474;SDS011;10899;53.576;9.960;2022-10-30T02:17:00;28.58;;;14.13;;
21474;SDS011;10899;53.576;9.960;2022-10-30T02:19:28;24.85;;;12.32;;
21474;SDS011;10899;53.576;9.960;2022-10-30T02:21:54;27.58;;;11.63;;
21474;SDS011;10899;53.576;9.960;2022-10-30T02:24:21;22.10;;;11.93;;
21474;SDS011;10899;53.576;9.960;2022-10-30T02:26:47;20.20;;;10.98;;
21474;SDS011;10899;53.576;9.960;2022-10-30T02:29:14;18.83;;;9.93;;
21474;SDS011;10899;53.576;9.960;2022-10-30T02:31:45;20.17;;;9.93;;
21474;SDS011;10899;53.576;9.960;2022-10-30T02:34:11;20.90;;;9.82;;
21474;SDS011;10899;53.576;9.960;2022-10-30T02:36:38;16.58;;;9.10;;
21474;SDS011;10899;53.576;9.960;2022-10-30T02:39:05;18.85;;;9.80;;
21474;SDS011;10899;53.576;9.960;2022-10-30T02:41:31;20.42;;;9.82;;
21474;SDS011;10899;53.576;9.960;2022-10-30T02:43:58;20.85;;;10.57;;
21474;SDS011;10899;53.576;9.960;2022-10-30T02:46:24;19.58;;;9.95;;
21474;SDS011;10899;53.576;9.960;2022-10-30T02:48:51;16.70;;;8.50;;
21474;SDS011;10899;53.576;9.960;2022-10-30T02:51:17;16.20;;;8.30;;
21474;SDS011;10899;53.576;9.960;2022-10-30T02:53:44;19.10;;;9.13;;
21474;SDS011;10899;53.576;9.960;2022-10-30T02:56:12;15.45;;;8.23;;
21474;SDS011;10899;53.576;9.960;2022-10-30T02:58:40;18.63;;;8.73;;
21474;SDS011;10899;53.576;9.960;2022-10-30T03:01:11;13.88;;;7.93;;
21474;SDS011;10899;53.576;9.960;2022-10-30T03:03:38;14.73;;;7.75;;
21474;SDS011;10899;53.576;9.960;2022-10-30T03:06:05;16.98;;;8.23;;
21474;SDS011;10899;53.576;9.960;2022-10-30T03:08:32;15.85;;;7.93;;
21474;SDS011;10899;53.576;9.960;2022-10-30T03:11:00;14.98;;;7.57;;
21474;SDS011;10899;53.576;9.960;2022-10-30T03:13:28;15.23;;;7.10;;
21474;SDS011;10899;53.576;9.960;2022-10-30T03:16:01;14.02;;;7.43;;
21474;SDS011;10899;53.576;9.960;2022-10-30T03:18:28;14.15;;;6.95;;
21474;SDS011;10899;53.576;9.960;2022-10-30T03:20:58;11.55;;;6.53;;
21474;SDS011;10899;53.576;9.960;2022-10-30T03:23:25;15.57;;;6.50;;
21474;SDS011;10899;53.576;9.960;2022-10-30T03:25:53;12.55;;;6.65;;
21474;SDS011;10899;53.576;9.960;2022-10-30T03:28:20;13.02;;;6.25;;
21474;SDS011;10899;53.576;9.960;2022-10-30T03:30:47;14.70;;;6.57;;
21474;SDS011;10899;53.576;9.960;2022-10-30T03:33:14;11.50;;;6.05;;
21474;SDS011;10899;53.576;9.960;2022-10-30T03:35:44;11.05;;;6.03;;
21474;SDS011;10899;53.576;9.960;2022-10-30T03:38:11;9.02;;;5.55;;
21474;SDS011;10899;53.576;9.960;2022-10-30T03:40:38;9.95;;;6.28;;
21474;SDS011;10899;53.576;9.960;2022-10-30T03:43:05;12.57;;;5.75;;
21474;SDS011;10899;53.576;9.960;2022-10-30T03:45:32;11.85;;;5.93;;
21474;SDS011;10899;53.576;9.960;2022-10-30T03:48:00;11.30;;;5.82;;
21474;SDS011;10899;53.576;9.960;2022-10-30T03:50:27;8.60;;;5.10;;
21474;SDS011;10899;53.576;9.960;2022-10-30T03:52:54;10.13;;;5.85;;
21474;SDS011;10899;53.576;9.960;2022-10-30T03:55:21;9.73;;;5.30;;
21474;SDS011;10899;53.576;9.960;2022-10-30T03:57:48;9.70;;;5.13;;
21474;SDS011;10899;53.576;9.960;2022-10-30T04:00:14;8.73;;;4.68;;
21474;SDS011;10899;53.576;9.960;2022-10-30T04:02:48;11.30;;;5.35;;
21474;SDS011;10899;53.576;9.960;2022-10-30T04:05:15;9.30;;;4.72;;
21474;SDS011;10899;53.576;9.960;2022-10-30T04:07:42;7.25;;;4.90;;
21474;SDS011;10899;53.576;9.960;2022-10-30T04:10:09;8.77;;;4.70;;
21474;SDS011;10899;53.576;9.960;2022-10-30T04:12:36;7.30;;;5.13;;
21474;SDS011;10899;53.576;9.960;2022-10-30T04:15:03;11.38;;;5.30;;
21474;SDS011;10899;53.576;9.960;2022-10-30T04:17:30;10.05;;;4.85;;
21474;SDS011;10899;53.576;9.960;2022-10-30T04:19:57;7.78;;;4.70;;
21474;SDS011;10899;53.576;9.960;2022-10-30T04:22:23;8.48;;;4.50;;
21474;SDS011;10899;53.576;9.960;2022-10-30T04:24:50;9.05;;;4.45;;
21474;SDS011;10899;53.576;9.960;2022-10-30T04:27:17;9.15;;;5.05;;
21474;SDS011;10899;53.576;9.960;2022-10-30T04:29:44;8.65;;;4.53;;
21474;SDS011;10899;53.576;9.960;2022-10-30T04:32:11;7.53;;;4.60;;
21474;SDS011;10899;53.576;9.960;2022-10-30T04:34:38;9.70;;;5.25;;
21474;SDS011;10899;53.576;9.960;2022-10-30T04:37:05;6.30;;;3.80;;
21474;SDS011;10899;53.576;9.960;2022-10-30T04:39:32;7.90;;;4.10;;
21474;SDS011;10899;53.576;9.960;2022-10-30T04:41:58;7.75;;;4.60;;
21474;SDS011;10899;53.576;9.960;2022-10-30T04:44:25;7.90;;;4.22;;
21474;SDS011;10899;53.576;9.960;2022-10-30T04:46:51;9.32;;;4.53;;
21474;SDS011;10899;53.576;9.960;2022-10-30T04:49:18;6.03;;;4.10;;
21474;SDS011;10899;53.576;9.960;2022-10-30T04:51:44;7.43;;;3.80;;
21474;SDS011;10899;53.576;9.960;2022-10-30T04:54:11;9.20;;;4.50;;
21474;SDS011;10899;53.576;9.960;2022-10-30T04:56:38;10.65;;;4.57;;
21474;SDS011;10899;53.576;9.960;2022-10-30T04:59:05;6.38;;;3.47;;
21474;SDS011;10899;53.576;9.960;2022-10-30T05:01:31;7.43;;;4.10;;
21474;SDS011;10899;53.576;9.960;2022-10-30T05:03:58;8.50;;;4.28;;
21474;SDS011;10899;53.576;9.960;2022-10-30T05:06:25;7.40;;;4.18;;
21474;SDS011;10899;53.576;9.960;2022-10-30T05:08:52;7.07;;;4.20;;
21474;SDS011;10899;53.576;9.960;2022-10-30T05:11:20;6.95;;;4.00;;
21474;SDS011;10899;53.576;9.960;2022-10-30T05:13:46;8.68;;;4.10;;
21474;SDS011;10899;53.576;9.960;2022-10-30T05:16:13;8.95;;;4.10;;
21474;SDS011;10899;53.576;9.960;2022-10-30T05:18:39;7.35;;;4.20;;
21474;SDS011;10899;53.576;9.960;2022-10-30T05:21:06;6.85;;;3.92;;
21474;SDS011;10899;53.576;9.960;2022-10-30T05:23:33;7.45;;;3.92;;
21474;SDS011;10899;53.576;9.960;2022-10-30T05:26:00;7.50;;;3.95;;
21474;SDS011;10899;53.576;9.960;2022-10-30T05:28:27;7.25;;;4.47;;
21474;SDS011;10899;53.576;9.960;2022-10-30T05:30:53;9.88;;;4.50;;
21474;SDS011;10899;53.576;9.960;2022-10-30T05:33:20;8.77;;;4.40;;
21474;SDS011;10899;53.576;9.960;2022-10-30T05:35:47;11.68;;;5.25;;
21474;SDS011;10899;53.576;9.960;2022-10-30T05:38:13;9.57;;;4.47;;
21474;SDS011;10899;53.576;9.960;2022-10-30T05:40:40;8.40;;;4.32;;
21474;SDS011;10899;53.576;9.960;2022-10-30T05:43:06;8.35;;;4.32;;
21474;SDS011;10899;53.576;9.960;2022-10-30T05:45:33;8.20;;;4.20;;
21474;SDS011;10899;53.576;9.960;2022-10-30T05:48:00;10.52;;;4.40;;
21474;SDS011;10899;53.576;9.960;2022-10-30T05:50:27;8.27;;;4.30;;
21474;SDS011;10899;53.576;9.960;2022-10-30T05:53:01;10.85;;;4.60;;
21474;SDS011;10899;53.576;9.960;2022-10-30T05:55:28;8.07;;;4.50;;
21474;SDS011;10899;53.576;9.960;2022-10-30T05:57:57;8.18;;;4.30;;
21474;SDS011;10899;53.576;9.960;2022-10-30T06:00:24;8.20;;;3.95;;
21474;SDS011;10899;53.576;9.960;2022-10-30T06:02:51;8.88;;;4.00;;
21474;SDS011;10899;53.576;9.960;2022-10-30T06:05:18;7.88;;;3.95;;
21474;SDS011;10899;53.576;9.960;2022-10-30T06:07:44;8.80;;;4.53;;
21474;SDS011;10899;53.576;9.960;2022-10-30T06:10:11;9.95;;;4.53;;
21474;SDS011;10899;53.576;9.960;2022-10-30T06:12:37;9.15;;;3.70;;
21474;SDS011;10899;53.576;9.960;2022-10-30T06:15:04;9.90;;;4.78;;
21474;SDS011;10899;53.576;9.960;2022-10-30T06:17:31;6.85;;;4.07;;
21474;SDS011;10899;53.576;9.960;2022-10-30T06:19:57;7.50;;;3.90;;
21474;SDS011;10899;53.576;9.960;2022-10-30T06:22:24;7.53;;;3.80;;
21474;SDS011;10899;53.576;9.960;2022-10-30T06:24:50;8.07;;;4.22;;
21474;SDS011;10899;53.576;9.960;2022-10-30T06:27:17;9.13;;;4.40;;
21474;SDS011;10899;53.576;9.960;2022-10-30T06:29:43;9.55;;;4.65;;
21474;SDS011;10899;53.576;9.960;2022-10-30T06:32:10;7.35;;;4.00;;
21474;SDS011;10899;53.576;9.960;2022-10-30T06:34:37;10.80;;;4.00;;
21474;SDS011;10899;53.576;9.960;2022-10-30T06:37:03;8.30;;;3.50;;
21474;SDS011;10899;53.576;9.960;2022-10-30T06:39:30;8.88;;;4.07;;
21474;SDS011;10899;53.576;9.960;2022-10-30T06:41:57;6.43;;;3.83;;
21474;SDS011;10899;53.576;9.960;2022-10-30T06:44:23;8.60;;;3.50;;
21474;SDS011;10899;53.576;9.960;2022-10-30T06:46:51;6.18;;;3.70;;
21474;SDS011;10899;53.576;9.960;2022-10-30T06:49:18;6.05;;;3.72;;
21474;SDS011;10899;53.576;9.960;2022-10-30T06:51:45;8.13;;;4.13;;
21474;SDS011;10899;53.576;9.960;2022-10-30T06:54:11;6.15;;;3.58;;
21474;SDS011;10899;53.576;9.960;2022-10-30T06:56:38;7.43;;;3.50;;
21474;SDS011;10899;53.576;9.960;2022-10-30T06:59:04;5.68;;;3.85;;
21474;SDS011;10899;53.576;9.960;2022-10-30T07:01:31;7.93;;;3.70;;
21474;SDS011;10899;53.576;9.960;2022-10-30T07:03:57;7.18;;;3.58;;
21474;SDS011;10899;53.576;9.960;2022-10-30T07:06:24;5.82;;;3.22;;
21474;SDS011;10899;53.576;9.960;2022-10-30T07:08:51;9.00;;;3.67;;
21474;SDS011;10899;53.576;9.960;2022-10-30T07:11:17;6.07;;;3.33;;
21474;SDS011;10899;53.576;9.960;2022-10-30T07:13:44;5.95;;;3.47;;
21474;SDS011;10899;53.576;9.960;2022-10-30T07:16:11;7.53;;;3.72;;
21474;SDS011;10899;53.576;9.960;2022-10-30T07:18:37;8.18;;;3.78;;
21474;SDS011;10899;53.576;9.960;2022-10-30T07:21:04;5.07;;;3.47;;
21474;SDS011;10899;53.576;9.960;2022-10-30T07:23:30;4.80;;;3.33;;
21474;SDS011;10899;53.576;9.960;2022-10-30T07:25:57;5.72;;;3.35;;
21474;SDS011;10899;53.576;9.960;2022-10-30T07:28:24;7.40;;;3.38;;
21474;SDS011;10899;53.576;9.960;2022-10-30T07:30:51;6.65;;;3.15;;
21474;SDS011;10899;53.576;9.960;2022-10-30T07:33:17;4.57;;;3.22;;
21474;SDS011;10899;53.576;9.960;2022-10-30T07:35:44;4.10;;;2.80;;
21474;SDS011;10899;53.576;9.960;2022-10-30T07:38:10;7.60;;;2.92;;
21474;SDS011;10899;53.576;9.960;2022-10-30T07:40:38;7.80;;;3.50;;
21474;SDS011;10899;53.576;9.960;2022-10-30T07:43:05;5.25;;;2.83;;
21474;SDS011;10899;53.576;9.960;2022-10-30T07:45:31;5.50;;;3.28;;
21474;SDS011;10899;53.576;9.960;2022-10-30T07:47:58;5.95;;;3.42;;
21474;SDS011;10899;53.576;9.960;2022-10-30T07:50:24;5.43;;;2.78;;
21474;SDS011;10899;53.576;9.960;2022-10-30T07:52:51;4.65;;;3.25;;
21474;SDS011;10899;53.576;9.960;2022-10-30T07:55:18;6.07;;;2.90;;
21474;SDS011;10899;53.576;9.960;2022-10-30T07:57:44;5.57;;;2.75;;
21474;SDS011;10899;53.576;9.960;2022-10-30T08:00:12;6.88;;;3.47;;
21474;SDS011;10899;53.576;9.960;2022-10-30T08:02:39;6.93;;;3.45;;
21474;SDS011;10899;53.576;9.960;2022-10-30T08:05:05;6.57;;;3.25;;
21474;SDS011;10899;53.576;9.960;2022-10-30T08:07:33;4.75;;;2.80;;
21474;SDS011;10899;53.576;9.960;2022-10-30T08:09:59;6.07;;;2.85;;
21474;SDS011;10899;53.576;9.960;2022-10-30T08:12:26;5.10;;;2.83;;
21474;SDS011;10899;53.576;9.960;2022-10-30T08:14:53;6.70;;;3.20;;
21474;SDS011;10899;53.576;9.960;2022-10-30T08:17:20;4.35;;;2.85;;
21474;SDS011;10899;53.576;9.960;2022-10-30T08:19:47;5.70;;;2.70;;
21474;SDS011;10899;53.576;9.960;2022-10-30T08:22:13;4.32;;;3.00;;
21474;SDS011;10899;53.576;9.960;2022-10-30T08:24:40;4.90;;;2.95;;
21474;SDS011;10899;53.576;9.960;2022-10-30T08:27:08;5.43;;;2.75;;
21474;SDS011;10899;53.576;9.960;2022-10-30T08:29:34;5.05;;;2.90;;
21474;SDS011;10899;53.576;9.960;2022-10-30T08:32:01;5.22;;;2.85;;
21474;SDS011;10899;53.576;9.960;2022-10-30T08:34:28;3.50;;;2.60;;
21474;SDS011;10899;53.576;9.960;2022-10-30T08:36:56;4.43;;;2.60;;
21474;SDS011;10899;53.576;9.960;2022-10-30T08:39:24;3.25;;;2.40;;
21474;SDS011;10899;53.576;9.960;2022-10-30T08:41:50;6.47;;;2.72;;
21474;SDS011;10899;53.576;9.960;2022-10-30T08:44:17;4.50;;;2.83;;
21474;SDS011;10899;53.576;9.960;2022-10-30T08:46:44;4.57;;;2.80;;
21474;SDS011;10899;53.576;9.960;2022-10-30T08:49:10;4.18;;;2.90;;
21474;SDS011;10899;53.576;9.960;2022-10-30T08:51:37;4.03;;;2.47;;
21474;SDS011;10899;53.576;9.960;2022-10-30T08:54:03;3.65;;;2.60;;
21474;SDS011;10899;53.576;9.960;2022-10-30T08:56:30;3.85;;;2.30;;
21474;SDS011;10899;53.576;9.960;2022-10-30T08:58:56;5.63;;;2.72;;
21474;SDS011;10899;53.576;9.960;2022-10-30T09:01:23;3.95;;;2.42;;
21474;SDS011;10899;53.576;9.960;2022-10-30T09:03:50;4.78;;;2.67;;
21474;SDS011;10899;53.576;9.960;2022-10-30T09:06:16;6.72;;;2.60;;
21474;SDS011;10899;53.576;9.960;2022-10-30T09:08:44;4.28;;;2.35;;
21474;SDS011;10899;53.576;9.960;2022-10-30T09:11:11;3.53;;;2.22;;
21474;SDS011;10899;53.576;9.960;2022-10-30T09:13:37;2.30;;;2.10;;
21474;SDS011;10899;53.576;9.960;2022-10-30T09:16:04;6.32;;;2.70;;
21474;SDS011;10899;53.576;9.960;2022-10-30T09:18:30;3.05;;;2.15;;
21474;SDS011;10899;53.576;9.960;2022-10-30T09:20:57;3.30;;;2.25;;
21474;SDS011;10899;53.576;9.960;2022-10-30T09:23:24;3.30;;;2.38;;
21474;SDS011;10899;53.576;9.960;2022-10-30T09:25:50;3.97;;;2.42;;
21474;SDS011;10899;53.576;9.960;2022-10-30T09:28:17;3.70;;;2.15;;
21474;SDS011;10899;53.576;9.960;2022-10-30T09:30:43;4.15;;;2.30;;
21474;SDS011;10899;53.576;9.960;2022-10-30T09:33:10;3.70;;;2.10;;
21474;SDS011;10899;53.576;9.960;2022-10-30T09:35:36;3.15;;;2.13;;
21474;SDS011;10899;53.576;9.960;2022-10-30T09:38:03;3.33;;;1.95;;
21474;SDS011;10899;53.576;9.960;2022-10-30T09:40:40;2.95;;;1.90;;
21474;SDS011;10899;53.576;9.960;2022-10-30T09:45:51;2.92;;;2.63;;
21474;SDS011;10899;53.576;9.960;2022-10-30T09:50:52;2.75;;;2.03;;
21474;SDS011;10899;53.576;9.960;2022-10-30T09:53:24;3.75;;;2.17;;
21474;SDS011;10899;53.576;9.960;2022-10-30T09:56:07;2.97;;;2.20;;
21474;SDS011;10899;53.576;9.960;2022-10-30T09:58:53;2.97;;;2.00;;
21474;SDS011;10899;53.576;9.960;2022-10-30T10:01:26;3.08;;;2.22;;
21474;SDS011;10899;53.576;9.960;2022-10-30T10:04:17;3.42;;;2.45;;
21474;SDS011;10899;53.576;9.960;2022-10-30T10:06:45;3.58;;;2.17;;
21474;SDS011;10899;53.576;9.960;2022-10-30T10:09:24;3.75;;;2.05;;
21474;SDS011;10899;53.576;9.960;2022-10-30T10:11:58;2.35;;;2.15;;
21474;SDS011;10899;53.576;9.960;2022-10-30T10:14:34;3.70;;;2.35;;
21474;SDS011;10899;53.576;9.960;2022-10-30T10:17:01;6.85;;;2.20;;
21474;SDS011;10899;53.576;9.960;2022-10-30T10:22:00;3.13;;;2.03;;
21474;SDS011;10899;53.576;9.960;2022-10-30T10:24:38;2.50;;;1.80;;
21474;SDS011;10899;53.576;9.960;2022-10-30T10:27:09;2.33;;;1.83;;
21474;SDS011;10899;53.576;9.960;2022-10-30T10:29:41;2.45;;;1.90;;
21474;SDS011;10899;53.576;9.960;2022-10-30T10:40:16;2.50;;;1.80;;
21474;SDS011;10899;53.576;9.960;2022-10-30T10:42:59;3.03;;;2.00;;
21474;SDS011;10899;53.576;9.960;2022-10-30T10:45:32;2.88;;;1.60;;
21474;SDS011;10899;53.576;9.960;2022-10-30T10:50:51;2.25;;;1.90;;
21474;SDS011;10899;53.576;9.960;2022-10-30T10:53:23;2.65;;;2.05;;
21474;SDS011;10899;53.576;9.960;2022-10-30T10:55:52;3.30;;;2.00;;
21474;SDS011;10899;53.576;9.960;2022-10-30T10:58:33;3.40;;;1.65;;
21474;SDS011;10899;53.576;9.960;2022-10-30T11:01:03;2.40;;;1.70;;
21474;SDS011;10899;53.576;9.960;2022-10-30T11:06:10;3.22;;;1.90;;
21474;SDS011;10899;53.576;9.960;2022-10-30T11:08:40;3.08;;;1.90;;
21474;SDS011;10899;53.576;9.960;2022-10-30T11:11:07;1.95;;;1.63;;
21474;SDS011;10899;53.576;9.960;2022-10-30T11:13:34;4.10;;;1.80;;
21474;SDS011;10899;53.576;9.960;2022-10-30T11:16:03;2.20;;;1.60;;
21474;SDS011;10899;53.576;9.960;2022-10-30T11:18:34;2.83;;;1.52;;
21474;SDS011;10899;53.576;9.960;2022-10-30T11:21:14;3.83;;;1.80;;
21474;SDS011;10899;53.576;9.960;2022-10-30T11:23:43;1.50;;;1.33;;
21474;SDS011;10899;53.576;9.960;2022-10-30T11:28:50;1.65;;;1.50;;
21474;SDS011;10899;53.576;9.960;2022-10-30T11:33:44;2.13;;;1.73;;
21474;SDS011;10899;53.576;9.960;2022-10-30T11:36:13;4.32;;;1.63;;
21474;SDS011;10899;53.576;9.960;2022-10-30T11:38:40;3.33;;;1.90;;
21474;SDS011;10899;53.576;9.960;2022-10-30T11:41:06;2.78;;;1.67;;
21474;SDS011;10899;53.576;9.960;2022-10-30T11:43:36;2.13;;;1.50;;
21474;SDS011;10899;53.576;9.960;2022-10-30T11:46:05;1.83;;;1.52;;
21474;SDS011;10899;53.576;9.960;2022-10-30T11:48:34;2.28;;;1.50;;
21474;SDS011;10899;53.576;9.960;2022-10-30T11:51:03;2.45;;;1.63;;
21474;SDS011;10899;53.576;9.960;2022-10-30T11:55:59;2.70;;;1.60;;
21474;SDS011;10899;53.576;9.960;2022-10-30T11:58:31;1.50;;;1.40;;
21474;SDS011;10899;53.576;9.960;2022-10-30T12:01:03;1.92;;;1.73;;
21474;SDS011;10899;53.576;9.960;2022-10-30T12:03:37;2.78;;;1.65;;
21474;SDS011;10899;53.576;9.960;2022-10-30T12:06:37;2.88;;;1.50;;
21474;SDS011;10899;53.576;9.960;2022-10-30T12:11:30;3.15;;;1.65;;
21474;SDS011;10899;53.576;9.960;2022-10-30T12:13:57;1.73;;;1.58;;
21474;SDS011;10899;53.576;9.960;2022-10-30T12:16:25;2.30;;;1.50;;
21474;SDS011;10899;53.576;9.960;2022-10-30T12:19:04;1.88;;;1.58;;
21474;SDS011;10899;53.576;9.960;2022-10-30T12:21:43;2.72;;;1.80;;
21474;SDS011;10899;53.576;9.960;2022-10-30T12:24:19;3.67;;;1.90;;
21474;SDS011;10899;53.576;9.960;2022-10-30T12:26:46;2.10;;;1.80;;
21474;SDS011;10899;53.576;9.960;2022-10-30T12:29:15;2.35;;;1.50;;
21474;SDS011;10899;53.576;9.960;2022-10-30T12:31:56;2.42;;;1.60;;
21474;SDS011;10899;53.576;9.960;2022-10-30T12:35:07;1.98;;;1.77;;
21474;SDS011;10899;53.576;9.960;2022-10-30T12:37:20;1.77;;;1.35;;
21474;SDS011;10899;53.576;9.960;2022-10-30T12:42:16;2.00;;;1.50;;
21474;SDS011;10899;53.576;9.960;2022-10-30T12:47:40;2.03;;;1.60;;
21474;SDS011;10899;53.576;9.960;2022-10-30T12:50:22;1.48;;;1.38;;
21474;SDS011;10899;53.576;9.960;2022-10-30T12:52:59;1.30;;;1.20;;
21474;SDS011;10899;53.576;9.960;2022-10-30T12:55:32;1.50;;;1.40;;
21474;SDS011;10899;53.576;9.960;2022-10-30T13:00:54;2.05;;;1.50;;
21474;SDS011;10899;53.576;9.960;2022-10-30T13:03:27;1.48;;;1.38;;
21474;SDS011;10899;53.576;9.960;2022-10-30T13:06:30;2.58;;;1.50;;
21474;SDS011;10899;53.576;9.960;2022-10-30T13:09:07;2.17;;;1.50;;
21474;SDS011;10899;53.576;9.960;2022-10-30T13:14:01;1.42;;;1.30;;
21474;SDS011;10899;53.576;9.960;2022-10-30T13:16:29;1.40;;;1.30;;
21474;SDS011;10899;53.576;9.960;2022-10-30T13:18:57;1.58;;;1.40;;
21474;SDS011;10899;53.576;9.960;2022-10-30T13:21:34;1.67;;;1.30;;
21474;SDS011;10899;53.576;9.960;2022-10-30T13:24:11;1.65;;;1.55;;
21474;SDS011;10899;53.576;9.960;2022-10-30T13:26:40;2.90;;;1.45;;
21474;SDS011;10899;53.576;9.960;2022-10-30T13:29:14;1.77;;;1.20;;
21474;SDS011;10899;53.576;9.960;2022-10-30T13:34:25;1.35;;;1.25;;
21474;SDS011;10899;53.576;9.960;2022-10-30T13:39:23;1.40;;;1.30;;
21474;SDS011;10899;53.576;9.960;2022-10-30T13:42:12;1.40;;;1.30;;
21474;SDS011;10899;53.576;9.960;2022-10-30T13:47:31;1.40;;;1.30;;
21474;SDS011;10899;53.576;9.960;2022-10-30T13:52:47;1.90;;;1.40;;
21474;SDS011;10899;53.576;9.960;2022-10-30T14:00:20;1.50;;;1.30;;
21474;SDS011;10899;53.576;9.960;2022-10-30T14:05:29;1.75;;;1.30;;
21474;SDS011;10899;53.576;9.960;2022-10-30T14:08:04;2.22;;;1.02;;
21474;SDS011;10899;53.576;9.960;2022-10-30T14:13:20;1.83;;;1.05;;
21474;SDS011;10899;53.576;9.960;2022-10-30T14:18:27;2.88;;;1.30;;
21474;SDS011;10899;53.576;9.960;2022-10-30T14:20:55;1.33;;;1.23;;
21474;SDS011;10899;53.576;9.960;2022-10-30T14:28:31;1.10;;;1.00;;
21474;SDS011;10899;53.576;9.960;2022-10-30T14:31:10;3.15;;;1.23;;
21474;SDS011;10899;53.576;9.960;2022-10-30T14:36:14;1.38;;;1.10;;
21474;SDS011;10899;53.576;9.960;2022-10-30T14:38:41;1.40;;;1.13;;
21474;SDS011;10899;53.576;9.960;2022-10-30T14:46:22;2.25;;;1.30;;
21474;SDS011;10899;53.576;9.960;2022-10-30T14:48:56;1.17;;;1.08;;
21474;SDS011;10899;53.576;9.960;2022-10-30T14:51:29;1.30;;;1.20;;
21474;SDS011;10899;53.576;9.960;2022-10-30T14:54:03;1.20;;;1.10;;
21474;SDS011;10899;53.576;9.960;2022-10-30T14:56:45;1.30;;;1.20;;
21474;SDS011;10899;53.576;9.960;2022-10-30T15:10:05;1.50;;;1.27;;
21474;SDS011;10899;53.576;9.960;2022-10-30T15:12:48;1.25;;;1.10;;
21474;SDS011;10899;53.576;9.960;2022-10-30T15:15:16;1.42;;;1.33;;
21474;SDS011;10899;53.576;9.960;2022-10-30T15:17:47;1.60;;;1.27;;
21474;SDS011;10899;53.576;9.960;2022-10-30T15:20:16;2.22;;;1.20;;
21474;SDS011;10899;53.576;9.960;2022-10-30T15:22:43;1.42;;;1.33;;
21474;SDS011;10899;53.576;9.960;2022-10-30T15:25:15;1.20;;;1.10;;
21474;SDS011;10899;53.576;9.960;2022-10-30T15:27:44;2.45;;;1.27;;
21474;SDS011;10899;53.576;9.960;2022-10-30T15:30:13;2.33;;;1.10;;
21474;SDS011;10899;53.576;9.960;2022-10-30T15:32:41;3.22;;;1.25;;
21474;SDS011;10899;53.576;9.960;2022-10-30T15:35:18;1.50;;;1.30;;
21474;SDS011;10899;53.576;9.960;2022-10-30T15:38:01;1.50;;;1.17;;
21474;SDS011;10899;53.576;9.960;2022-10-30T15:40:28;1.30;;;1.20;;
21474;SDS011;10899;53.576;9.960;2022-10-30T15:42:58;2.05;;;1.27;;
21474;SDS011;10899;53.576;9.960;2022-10-30T15:48:05;2.03;;;1.23;;
21474;SDS011;10899;53.576;9.960;2022-10-30T15:50:34;2.88;;;1.20;;
21474;SDS011;10899;53.576;9.960;2022-10-30T15:53:00;1.13;;;1.02;;
21474;SDS011;10899;53.576;9.960;2022-10-30T15:55:28;1.33;;;1.23;;
21474;SDS011;10899;53.576;9.960;2022-10-30T15:58:00;1.27;;;1.17;;
21474;SDS011;10899;53.576;9.960;2022-10-30T16:00:32;1.40;;;1.30;;
21474;SDS011;10899;53.576;9.960;2022-10-30T16:03:00;2.22;;;1.40;;
21474;SDS011;10899;53.576;9.960;2022-10-30T16:05:27;2.00;;;1.17;;
21474;SDS011;10899;53.576;9.960;2022-10-30T16:07:56;1.50;;;1.40;;
21474;SDS011;10899;53.576;9.960;2022-10-30T16:10:26;1.75;;;1.13;;
21474;SDS011;10899;53.576;9.960;2022-10-30T16:12:56;3.45;;;1.67;;
21474;SDS011;10899;53.576;9.960;2022-10-30T16:17:56;2.63;;;1.50;;
21474;SDS011;10899;53.576;9.960;2022-10-30T16:20:24;3.10;;;1.85;;
21474;SDS011;10899;53.576;9.960;2022-10-30T16:22:52;2.65;;;1.80;;
21474;SDS011;10899;53.576;9.960;2022-10-30T16:25:19;2.33;;;1.67;;
21474;SDS011;10899;53.576;9.960;2022-10-30T16:27:46;3.05;;;1.55;;
21474;SDS011;10899;53.576;9.960;2022-10-30T16:30:13;5.22;;;1.70;;
21474;SDS011;10899;53.576;9.960;2022-10-30T16:32:40;6.70;;;1.80;;
21474;SDS011;10899;53.576;9.960;2022-10-30T16:35:09;5.75;;;1.77;;
21474;SDS011;10899;53.576;9.960;2022-10-30T16:37:37;2.47;;;1.70;;
21474;SDS011;10899;53.576;9.960;2022-10-30T16:40:12;3.20;;;1.80;;
21474;SDS011;10899;53.576;9.960;2022-10-30T16:42:39;4.60;;;2.08;;
21474;SDS011;10899;53.576;9.960;2022-10-30T16:47:38;8.52;;;2.58;;
21474;SDS011;10899;53.576;9.960;2022-10-30T16:50:09;5.07;;;2.45;;
21474;SDS011;10899;53.576;9.960;2022-10-30T16:52:37;4.63;;;2.10;;